createdAt,value
2023-05-10T00:02:11.549Z,3.70
2023-05-10T00:05:03.819Z,3.20
2023-05-10T00:07:55.935Z,3.60
2023-05-10T00:10:27.830Z,3.60
2023-05-10T00:13:19.880Z,3.10
2023-05-10T00:16:14.080Z,3.30
2023-05-10T00:21:45.452Z,3.20
2023-05-10T00:24:37.402Z,3.40
2023-05-10T00:27:29.362Z,3.60
2023-05-10T00:30:21.594Z,3.90
2023-05-10T00:33:13.565Z,3.70
2023-05-10T00:36:08.356Z,4.00
2023-05-10T00:39:00.371Z,3.90
2023-05-10T00:41:52.381Z,3.40
2023-05-10T00:44:44.351Z,4.30
2023-05-10T00:47:36.896Z,3.50
2023-05-10T00:50:29.092Z,3.30
2023-05-10T00:53:21.260Z,3.70
2023-05-10T00:56:13.620Z,3.60
2023-05-10T00:59:05.807Z,3.80
2023-05-10T01:01:57.824Z,3.50
2023-05-10T01:04:51.099Z,3.40
2023-05-10T01:07:43.386Z,3.80
2023-05-10T01:10:35.451Z,3.80
2023-05-10T01:13:33.090Z,3.30
2023-05-10T01:16:26.368Z,3.60
2023-05-10T01:19:24.959Z,3.50
2023-05-10T01:22:40.671Z,3.90
2023-05-10T01:25:52.263Z,3.60
2023-05-10T01:29:00.445Z,3.80
2023-05-10T01:35:09.492Z,2.90
2023-05-10T01:38:07.068Z,3.30
2023-05-10T01:41:09.639Z,3.60
2023-05-10T01:44:11.819Z,3.40
2023-05-10T01:47:11.909Z,3.50
2023-05-10T01:50:06.812Z,3.50
2023-05-10T01:53:01.066Z,3.50
2023-05-10T01:55:55.937Z,3.80
2023-05-10T01:58:33.599Z,4.00
2023-05-10T02:01:17.523Z,4.10
2023-05-10T02:04:11.098Z,3.90
2023-05-10T02:07:04.136Z,4.20
2023-05-10T02:09:57.667Z,4.10
2023-05-10T02:12:52.720Z,4.00
2023-05-10T02:15:49.274Z,4.30
2023-05-10T02:18:43.207Z,4.10
2023-05-10T02:21:37.317Z,4.50
2023-05-10T02:24:30.516Z,4.50
2023-05-10T02:27:24.680Z,4.00
2023-05-10T02:30:18.065Z,4.10
2023-05-10T02:33:10.677Z,5.40
2023-05-10T02:36:03.570Z,4.90
2023-05-10T02:38:57.009Z,5.10
2023-05-10T02:41:51.970Z,5.50
2023-05-10T02:44:45.251Z,5.10
2023-05-10T02:47:37.873Z,5.70
2023-05-10T02:50:32.412Z,5.70
2023-05-10T02:53:32.794Z,5.90
2023-05-10T02:56:32.366Z,6.20
2023-05-10T02:59:24.356Z,6.30
2023-05-10T03:02:16.579Z,6.90
2023-05-10T03:05:09.614Z,6.50
2023-05-10T03:08:05.050Z,7.20
2023-05-10T03:11:14.565Z,7.50
2023-05-10T03:14:18.848Z,6.30
2023-05-10T03:17:02.604Z,6.60
2023-05-10T03:19:59.476Z,6.20
2023-05-10T03:22:57.822Z,5.90
2023-05-10T03:25:52.473Z,7.10
2023-05-10T03:28:45.770Z,5.90
2023-05-10T03:31:37.912Z,6.70
2023-05-10T03:34:32.220Z,6.20
2023-05-10T03:37:24.244Z,6.40
2023-05-10T03:40:17.563Z,5.70
2023-05-10T03:43:09.854Z,6.30
2023-05-10T03:46:03.340Z,6.20
2023-05-10T03:48:55.292Z,6.80
2023-05-10T03:51:47.362Z,6.80
2023-05-10T03:54:39.311Z,6.40
2023-05-10T03:57:31.308Z,6.40
2023-05-10T04:00:23.862Z,6.00
2023-05-10T04:03:16.167Z,5.50
2023-05-10T04:06:10.066Z,6.50
2023-05-10T04:09:05.075Z,6.20
2023-05-10T04:11:57.069Z,5.90
2023-05-10T04:14:49.029Z,6.40
2023-05-10T04:17:41.040Z,5.90
2023-05-10T04:20:34.062Z,6.00
2023-05-10T04:23:26.067Z,6.60
2023-05-10T04:26:18.094Z,6.00
2023-05-10T04:29:10.090Z,6.70
2023-05-10T04:32:02.079Z,6.60
2023-05-10T04:34:54.095Z,6.10
2023-05-10T04:37:46.064Z,5.30
2023-05-10T04:40:37.980Z,5.20
2023-05-10T04:43:29.919Z,5.50
2023-05-10T04:46:21.879Z,5.70
2023-05-10T04:49:13.998Z,4.70
2023-05-10T04:52:06.122Z,5.60
2023-05-10T04:54:58.423Z,5.90
2023-05-10T04:57:50.522Z,5.30
2023-05-10T05:00:43.208Z,6.50
2023-05-10T05:03:35.357Z,6.30
2023-05-10T05:06:28.254Z,5.60
2023-05-10T05:09:20.367Z,6.00
2023-05-10T05:12:15.025Z,5.00
2023-05-10T05:15:10.028Z,4.80
2023-05-10T05:18:02.018Z,3.70
2023-05-10T05:20:54.051Z,3.60
2023-05-10T05:23:46.090Z,4.00
2023-05-10T05:26:38.589Z,3.80
2023-05-10T05:29:30.719Z,4.10
2023-05-10T05:32:22.746Z,4.70
2023-05-10T05:35:15.194Z,3.40
2023-05-10T05:38:07.425Z,4.90
2023-05-10T05:40:59.540Z,4.40
2023-05-10T05:43:51.610Z,3.90
2023-05-10T05:46:43.586Z,4.10
2023-05-10T05:49:35.758Z,4.30
2023-05-10T05:52:27.734Z,4.50
2023-05-10T05:55:19.990Z,4.20
2023-05-10T05:58:03.170Z,5.00
2023-05-10T06:00:55.581Z,4.70
2023-05-10T06:03:47.771Z,4.70
2023-05-10T06:06:39.870Z,5.30
2023-05-10T06:09:31.940Z,5.00
2023-05-10T06:12:23.876Z,5.20
2023-05-10T06:15:16.170Z,6.10
2023-05-10T06:18:08.430Z,5.00
2023-05-10T06:20:49.448Z,5.70
2023-05-10T06:23:41.392Z,4.60
2023-05-10T06:26:33.403Z,5.40
2023-05-10T06:29:25.326Z,4.70
2023-05-10T06:32:17.303Z,5.10
2023-05-10T06:35:10.927Z,6.30
2023-05-10T06:38:02.939Z,5.10
2023-05-10T06:40:54.927Z,5.10
2023-05-10T06:43:46.922Z,5.20
2023-05-10T06:46:39.057Z,4.90
2023-05-10T06:49:26.947Z,5.10
2023-05-10T06:52:18.955Z,5.50
2023-05-10T06:55:12.418Z,5.80
2023-05-10T06:58:04.407Z,5.20
2023-05-10T07:00:56.444Z,4.90
2023-05-10T07:03:48.443Z,5.00
2023-05-10T07:06:40.444Z,5.10
2023-05-10T07:09:25.383Z,4.40
2023-05-10T07:12:17.398Z,3.70
2023-05-10T07:15:11.448Z,4.40
2023-05-10T07:18:03.585Z,3.80
2023-05-10T07:20:40.990Z,3.40
2023-05-10T07:23:32.940Z,3.40
2023-05-10T07:26:24.994Z,9.00
2023-05-10T07:29:16.942Z,3.00
2023-05-10T07:32:09.665Z,2.00
2023-05-10T07:35:02.049Z,2.20
2023-05-10T07:37:54.039Z,2.10
2023-05-10T07:40:46.034Z,2.20
2023-05-10T07:43:38.074Z,2.00
2023-05-10T07:46:30.115Z,2.30
2023-05-10T07:49:22.314Z,3.60
2023-05-10T07:52:14.649Z,1.80
2023-05-10T07:55:08.239Z,1.80
2023-05-10T07:58:01.987Z,2.40
2023-05-10T08:00:54.467Z,2.00
2023-05-10T08:03:46.605Z,2.00
2023-05-10T08:06:38.656Z,2.10
2023-05-10T08:09:30.682Z,2.00
2023-05-10T08:12:22.672Z,1.80
2023-05-10T08:15:15.652Z,1.70
2023-05-10T08:17:47.670Z,1.70
2023-05-10T08:20:39.627Z,4.40
2023-05-10T08:23:31.594Z,1.40
2023-05-10T08:26:12.513Z,1.40
2023-05-10T08:29:04.795Z,1.60
2023-05-10T08:31:56.811Z,2.00
2023-05-10T08:34:48.798Z,1.00
2023-05-10T08:37:40.831Z,1.70
2023-05-10T08:40:33.001Z,1.30
2023-05-10T08:43:28.327Z,1.70
2023-05-10T08:46:22.211Z,1.50
2023-05-10T08:49:06.674Z,1.70
2023-05-10T08:51:59.603Z,0.70
2023-05-10T08:54:51.906Z,1.50
2023-05-10T08:57:44.278Z,1.40
2023-05-10T09:00:25.867Z,1.20
2023-05-10T09:03:18.031Z,1.50
2023-05-10T09:06:10.296Z,1.90
2023-05-10T09:09:02.443Z,1.30
2023-05-10T09:11:55.774Z,1.80
2023-05-10T09:14:48.421Z,1.40
2023-05-10T09:17:41.119Z,1.40
2023-05-10T09:20:33.181Z,1.30
2023-05-10T09:31:00.214Z,1.50
2023-05-10T09:33:52.722Z,1.80
2023-05-10T09:36:56.052Z,1.60
2023-05-10T09:39:48.043Z,1.30
2023-05-10T09:42:40.044Z,1.50
2023-05-10T09:45:35.549Z,1.20
2023-05-10T09:48:29.102Z,1.70
2023-05-10T09:51:11.210Z,1.30
2023-05-10T09:54:14.589Z,6.80
2023-05-10T09:57:06.920Z,1.60
2023-05-10T10:00:02.295Z,1.30
2023-05-10T10:02:43.543Z,1.40
2023-05-10T10:05:37.331Z,1.60
2023-05-10T10:08:29.552Z,1.40
2023-05-10T10:11:21.859Z,1.50
2023-05-10T10:14:15.156Z,1.70
2023-05-10T10:17:08.674Z,2.10
2023-05-10T10:20:01.541Z,1.50
2023-05-10T10:22:53.982Z,4.20
2023-05-10T10:25:48.739Z,1.80
2023-05-10T10:28:49.683Z,1.40
2023-05-10T10:31:48.187Z,1.50
2023-05-10T10:34:42.921Z,1.80
2023-05-10T10:37:49.246Z,3.60
2023-05-10T10:40:41.621Z,1.70
2023-05-10T10:43:33.637Z,1.40
2023-05-10T10:46:18.884Z,1.40
2023-05-10T10:49:13.979Z,1.80
2023-05-10T10:52:22.958Z,1.70
2023-05-10T10:55:19.136Z,2.10
2023-05-10T10:58:11.480Z,2.10
2023-05-10T11:01:17.823Z,2.10
2023-05-10T11:04:22.353Z,1.40
2023-05-10T11:07:21.689Z,1.80
2023-05-10T11:10:22.486Z,1.50
2023-05-10T11:13:14.474Z,1.40
2023-05-10T11:16:17.877Z,1.60
2023-05-10T11:19:04.633Z,1.20
2023-05-10T11:21:55.019Z,1.50
2023-05-10T11:24:30.647Z,1.80
2023-05-10T11:27:22.708Z,1.90
2023-05-10T11:30:16.704Z,1.70
2023-05-10T11:33:09.466Z,1.70
2023-05-10T11:36:01.546Z,1.60
2023-05-10T11:38:36.515Z,1.90
2023-05-10T11:41:30.762Z,3.10
2023-05-10T11:44:22.747Z,1.60
2023-05-10T11:47:10.143Z,1.70
2023-05-10T11:50:02.606Z,1.70
2023-05-10T11:52:56.311Z,1.60
2023-05-10T11:55:48.347Z,1.70
2023-05-10T11:58:28.764Z,1.80
2023-05-10T12:01:20.874Z,1.60
2023-05-10T12:04:13.125Z,1.50
2023-05-10T12:06:57.140Z,1.80
2023-05-10T12:10:06.302Z,1.90
2023-05-10T12:12:43.901Z,1.80
2023-05-10T12:18:27.705Z,1.30
2023-05-10T12:21:16.862Z,1.80
2023-05-10T12:24:09.414Z,1.60
2023-05-10T12:26:52.217Z,1.50
2023-05-10T12:29:46.839Z,1.70
2023-05-10T12:32:46.096Z,1.90
2023-05-10T12:35:47.834Z,2.10
2023-05-10T12:38:41.216Z,2.00
2023-05-10T12:41:16.867Z,2.40
2023-05-10T12:44:08.837Z,4.70
2023-05-10T12:47:00.877Z,1.90
2023-05-10T12:49:53.111Z,2.00
2023-05-10T12:52:45.091Z,1.80
2023-05-10T12:55:37.119Z,3.30
2023-05-10T12:58:35.715Z,1.70
2023-05-10T13:01:34.421Z,1.80
2023-05-10T13:04:26.801Z,7.80
2023-05-10T13:07:18.907Z,3.80
2023-05-10T13:10:12.412Z,1.80
2023-05-10T13:13:04.782Z,2.10
2023-05-10T13:15:56.873Z,1.70
2023-05-10T13:18:48.962Z,1.60
2023-05-10T13:21:41.916Z,2.50
2023-05-10T13:24:34.221Z,1.80
2023-05-10T13:27:26.405Z,1.70
2023-05-10T13:30:18.684Z,1.90
2023-05-10T13:33:11.056Z,1.50
2023-05-10T13:36:03.120Z,1.70
2023-05-10T13:38:55.170Z,1.90
2023-05-10T13:41:47.186Z,1.70
2023-05-10T13:44:39.805Z,1.70
2023-05-10T13:47:32.109Z,1.70
2023-05-10T13:50:24.331Z,1.80
2023-05-10T13:53:16.485Z,1.70
2023-05-10T13:56:09.038Z,1.50
2023-05-10T13:59:01.227Z,1.50
2023-05-10T14:01:53.467Z,1.60
2023-05-10T14:04:45.552Z,1.50
2023-05-10T14:07:37.952Z,2.00
2023-05-10T14:10:30.202Z,1.50
2023-05-10T14:13:07.276Z,1.40
2023-05-10T14:16:01.470Z,1.40
2023-05-10T14:18:53.525Z,1.50
2023-05-10T14:21:26.113Z,1.70
2023-05-10T14:24:18.096Z,1.70
2023-05-10T14:27:10.221Z,1.70
2023-05-10T14:30:02.243Z,1.70
2023-05-10T14:32:55.037Z,1.80
2023-05-10T14:35:48.661Z,1.50
2023-05-10T14:38:41.157Z,7.50
2023-05-10T14:41:33.895Z,1.80
2023-05-10T14:44:27.235Z,1.70
2023-05-10T14:47:04.527Z,1.80
2023-05-10T14:49:56.574Z,1.80
2023-05-10T14:52:48.797Z,2.50
2023-05-10T14:55:40.922Z,1.60
2023-05-10T14:58:34.321Z,1.80
2023-05-10T15:01:26.623Z,1.70
2023-05-10T15:04:19.168Z,1.70
2023-05-10T15:07:15.243Z,1.70
2023-05-10T15:09:56.210Z,1.20
2023-05-10T15:12:39.678Z,1.70
2023-05-10T15:15:31.877Z,2.10
2023-05-10T15:18:26.935Z,2.40
2023-05-10T15:21:19.099Z,2.40
2023-05-10T15:24:11.740Z,2.30
2023-05-10T15:27:03.806Z,1.90
2023-05-10T15:29:56.261Z,2.00
2023-05-10T15:32:48.455Z,2.00
2023-05-10T15:35:40.681Z,2.00
2023-05-10T15:38:32.804Z,1.70
2023-05-10T15:41:21.822Z,1.40
2023-05-10T15:44:13.801Z,1.70
2023-05-10T15:47:06.058Z,1.50
2023-05-10T15:49:58.346Z,1.70
2023-05-10T15:52:50.368Z,1.80
2023-05-10T15:55:42.423Z,1.80
2023-05-10T15:58:34.592Z,2.30
2023-05-10T16:01:26.895Z,2.30
2023-05-10T16:04:19.106Z,2.70
2023-05-10T16:07:11.118Z,1.90
2023-05-10T16:10:04.219Z,2.10
2023-05-10T16:12:57.668Z,3.30
2023-05-10T16:15:49.817Z,1.80
2023-05-10T16:18:32.648Z,2.40
2023-05-10T16:21:24.814Z,1.60
2023-05-10T16:24:17.015Z,2.00
2023-05-10T16:27:09.927Z,2.10
2023-05-10T16:30:02.213Z,1.80
2023-05-10T16:32:54.465Z,2.00
2023-05-10T16:35:46.537Z,2.00
2023-05-10T16:38:38.683Z,2.00
2023-05-10T16:41:33.622Z,1.90
2023-05-10T16:44:26.049Z,4.10
2023-05-10T16:47:18.244Z,2.20
2023-05-10T16:50:11.548Z,2.00
2023-05-10T16:52:53.876Z,2.00
2023-05-10T16:55:46.063Z,2.40
2023-05-10T16:58:38.156Z,1.90
2023-05-10T17:01:30.319Z,1.90
2023-05-10T17:04:04.838Z,1.80
2023-05-10T17:06:56.976Z,1.80
2023-05-10T17:09:49.209Z,2.60
2023-05-10T17:12:41.289Z,2.30
2023-05-10T17:15:33.332Z,1.80
2023-05-10T17:18:26.683Z,2.30
2023-05-10T17:21:18.862Z,1.80
2023-05-10T17:24:11.561Z,1.90
2023-05-10T17:27:04.428Z,14.50
2023-05-10T17:30:00.006Z,2.80
2023-05-10T17:32:54.177Z,2.00
2023-05-10T17:35:49.098Z,3.10
2023-05-10T17:38:41.205Z,2.10
2023-05-10T17:41:33.622Z,2.20
2023-05-10T17:44:26.023Z,2.20
2023-05-10T17:47:18.369Z,2.60
2023-05-10T17:50:11.908Z,2.10
2023-05-10T17:53:03.998Z,2.00
2023-05-10T17:55:58.034Z,2.10
2023-05-10T17:58:50.539Z,2.60
2023-05-10T18:01:42.669Z,2.00
2023-05-10T18:04:34.807Z,2.10
2023-05-10T18:07:27.192Z,2.40
2023-05-10T18:10:19.366Z,2.50
2023-05-10T18:13:11.823Z,2.30
2023-05-10T18:16:05.682Z,2.20
2023-05-10T18:18:58.515Z,2.50
2023-05-10T18:21:50.638Z,3.20
2023-05-10T18:24:42.875Z,3.00
2023-05-10T18:27:35.066Z,4.00
2023-05-10T18:30:12.576Z,2.60
2023-05-10T18:33:05.026Z,3.20
2023-05-10T18:35:57.235Z,2.30
2023-05-10T18:38:49.323Z,2.70
2023-05-10T18:41:41.605Z,2.90
2023-05-10T18:44:33.810Z,2.30
2023-05-10T18:47:26.787Z,3.10
2023-05-10T18:50:19.805Z,3.30
2023-05-10T18:53:12.298Z,2.80
2023-05-10T18:56:04.535Z,3.30
2023-05-10T18:58:56.673Z,2.70
2023-05-10T19:01:51.099Z,2.70
2023-05-10T19:04:43.556Z,2.70
2023-05-10T19:07:35.851Z,2.80
2023-05-10T19:10:27.876Z,3.20
2023-05-10T19:13:19.884Z,2.70
2023-05-10T19:16:16.683Z,2.60
2023-05-10T19:18:57.760Z,2.60
2023-05-10T19:21:50.036Z,2.70
2023-05-10T19:24:25.866Z,3.30
2023-05-10T19:27:18.068Z,2.50
2023-05-10T19:30:01.591Z,2.80
2023-05-10T19:32:53.718Z,2.40
2023-05-10T19:35:45.919Z,2.60
2023-05-10T19:38:38.085Z,3.20
2023-05-10T19:41:30.029Z,3.30
2023-05-10T19:44:23.041Z,3.50
2023-05-10T19:47:15.241Z,2.50
2023-05-10T19:50:09.054Z,2.70
2023-05-10T19:53:01.580Z,2.50
2023-05-10T19:55:53.536Z,2.40
2023-05-10T19:58:45.542Z,2.30
2023-05-10T20:01:37.716Z,2.50
2023-05-10T20:04:27.043Z,2.60
2023-05-10T20:07:19.097Z,5.50
2023-05-10T20:10:12.653Z,2.90
2023-05-10T20:13:04.762Z,2.80
2023-05-10T20:16:00.034Z,3.50
2023-05-10T20:21:44.214Z,2.30
2023-05-10T20:24:36.228Z,2.60
2023-05-10T20:27:28.184Z,2.50
2023-05-10T20:30:20.451Z,2.90
2023-05-10T20:33:15.530Z,3.70
2023-05-10T20:36:09.534Z,2.70
2023-05-10T20:39:01.581Z,3.30
2023-05-10T20:41:54.626Z,2.90
2023-05-10T20:44:46.795Z,2.80
2023-05-10T20:47:39.271Z,3.50
2023-05-10T20:50:14.721Z,3.20
2023-05-10T20:53:06.882Z,2.50
2023-05-10T20:55:58.900Z,2.50
2023-05-10T20:58:50.797Z,2.50
2023-05-10T21:01:42.878Z,2.60
2023-05-10T21:04:35.016Z,2.60
2023-05-10T21:07:27.146Z,2.80
2023-05-10T21:10:19.319Z,2.60
2023-05-10T21:13:11.432Z,2.90
2023-05-10T21:16:03.389Z,2.70
2023-05-10T21:18:55.438Z,2.40
2023-05-10T21:21:47.409Z,2.70
2023-05-10T21:24:39.456Z,2.70
2023-05-10T21:27:31.444Z,3.10
2023-05-10T21:30:23.527Z,2.90
2023-05-10T21:33:15.598Z,3.00
2023-05-10T21:36:08.585Z,3.20
2023-05-10T21:39:00.647Z,2.70
2023-05-10T21:41:52.565Z,2.40
2023-05-10T21:44:44.623Z,2.60
2023-05-10T21:47:37.231Z,2.60
2023-05-10T21:50:29.350Z,3.80
2023-05-10T21:53:22.313Z,3.60
2023-05-10T21:55:55.178Z,3.00
2023-05-10T21:58:37.026Z,2.90
2023-05-10T22:01:29.153Z,3.00
2023-05-10T22:04:21.242Z,3.20
2023-05-10T22:07:13.505Z,3.10
2023-05-10T22:10:06.216Z,3.40
2023-05-10T22:12:59.638Z,3.80
2023-05-10T22:15:51.689Z,3.40
2023-05-10T22:18:44.222Z,7.00
2023-05-10T22:21:36.223Z,10.80
2023-05-10T22:24:28.219Z,4.10
2023-05-10T22:27:20.176Z,3.60
2023-05-10T22:30:13.502Z,3.30
2023-05-10T22:33:05.596Z,3.50
2023-05-10T22:35:57.578Z,3.50
2023-05-10T22:38:49.568Z,5.60
2023-05-10T22:41:41.514Z,3.40
2023-05-10T22:44:33.516Z,3.90
2023-05-10T22:47:25.624Z,3.60
2023-05-10T22:50:19.348Z,3.30
2023-05-10T22:53:11.524Z,3.80
2023-05-10T22:56:03.599Z,3.80
2023-05-10T22:58:55.944Z,3.80
2023-05-10T23:01:48.913Z,3.50
2023-05-10T23:04:40.984Z,3.90
2023-05-10T23:07:33.024Z,3.60
2023-05-10T23:10:25.149Z,4.10
2023-05-10T23:13:17.300Z,3.40
2023-05-10T23:16:09.894Z,3.60
2023-05-10T23:19:02.093Z,3.30
2023-05-10T23:21:54.131Z,3.30
2023-05-10T23:24:35.908Z,3.10
2023-05-10T23:27:31.068Z,3.60
2023-05-10T23:30:23.155Z,3.50
2023-05-10T23:33:15.131Z,3.70
2023-05-10T23:36:07.782Z,3.20
2023-05-10T23:38:59.734Z,3.60
2023-05-10T23:41:42.718Z,3.60
2023-05-10T23:44:34.754Z,3.60
2023-05-10T23:47:26.871Z,3.80
2023-05-10T23:50:19.348Z,3.80
2023-05-10T23:53:11.647Z,3.90
2023-05-10T23:55:46.395Z,4.00
2023-05-10T23:58:38.568Z,6.00
